Decoded Metar for LEHC (HUESCA in SPAIN) (IATA:N/A) | Meteo·Mobile Aviation Weather
aviador You're here:

LEHC Decoded Metar

HUESCA in SPAIN
Report Time2020-02-23 11:30:00
UTC Time2020-02-23 11:50:07
Flight Rules vfr VFR
Wind260° at 05 kt
W.Decomp.*RWY 30: 3.9 kt HW 3.1 kt LCW
Visibility9000 m
Phenomena:Vicinity Fog
Clouds:N/A
Expected CloudBase > 2,800 ft AGL from Temp-Dew spread
CeilingNone
Temp14°C (ISA +3)
Dew Point07°C (63% RH)
AAT11.5°C
QNH1034 hPa
Density Alt1,503 ft
Elevation1,768 ft
Report Wrong Elevation
Raw Report
METAR LEHC 231130Z 26005KT 220V310 9000 VCFG NSC 14/07 Q1034=

Extra information for LEHC:More info

Metar Taf Metar & Taf Last 4 Metars F.Rules Stats Wind Profile Meteogram Temp Stats Airport Information Weather charts Add Link Nearby VenuesMetar ALERT Operation Metar Decoded Social comments